Time;durP1;ratioP1;P1;durP2;ratioP2;P2;SDS_P1;SDS_P2;PMS_P1;PMS_P2;Temp;Humidity;BMP_temperature;BMP_pressure;BME280_temperature;BME280_humidity;BME280_pressure;Samples;Min_cycle;Max_cycle;Signal;HPM_P1;HPM_P2
2023/10/03 00:00:44;;;;;;;;;;;;;;;18.33;75.81;101132.53;4105974;28;19930;-71
2023/10/03 00:02:49;;;;;;;;;;;;;;;18.32;75.67;101136.34;4106613;28;19926;-72
2023/10/03 00:04:53;;;;;;;;;;;;;;;18.25;75.90;101131.97;4106547;28;20013;-71
2023/10/03 00:06:55;;;;;;;;;;;;;;;18.19;76.18;101122.72;4105544;28;20396;-71
2023/10/03 00:08:57;;;;;;;;;;;;;;;18.19;76.54;101122.72;4103246;28;20013;-72
2023/10/03 00:10:59;;;;;;;;;;;;;;;18.17;76.50;101122.94;4106089;28;20012;-72
2023/10/03 00:13:01;;;;;;;;;;;;;;;18.09;76.56;101106.81;4105916;28;20049;-72
2023/10/03 00:15:07;;;;;;;;;;;;;;;18.08;76.28;101120.69;4106013;28;20464;-72
2023/10/03 00:17:09;;;;;;;;;;;;;;;18.06;76.60;101112.69;4104300;28;19968;-72
2023/10/03 00:19:11;;;;;;;;;;;;;;;18.07;76.45;101110.78;4107375;28;20022;-73
2023/10/03 00:21:15;;;;;;;;;;;;;;;17.98;76.61;101104.75;4105790;28;20001;-72
2023/10/03 00:23:17;;;;;;;;;;;;;;;17.94;76.80;101106.25;4105504;28;20034;-72
2023/10/03 00:25:19;;;;;;;;;;;;;;;17.91;76.54;101106.66;4105775;28;20025;-72
2023/10/03 00:27:20;;;;;;;;;;;;;;;17.89;76.80;101106.06;4106207;28;20017;-72
2023/10/03 00:29:26;;;;;;;;;;;;;;;17.83;77.11;101099.53;4105422;28;20020;-72
2023/10/03 00:31:29;;;;;;;;;;;;;;;17.77;77.42;101101.25;4106351;28;20598;-72
2023/10/03 00:33:32;;;;;;;;;;;;;;;17.73;77.38;101090.97;4105079;28;20025;-72
2023/10/03 00:35:34;;;;;;;;;;;;;;;17.74;77.19;101090.75;4106486;28;20370;-72
2023/10/03 00:37:38;;;;;;;;;;;;;;;17.71;77.00;101085.72;4089935;29;19933;-72
2023/10/03 00:39:39;;;;;;;;;;;;;;;17.69;77.32;101071.41;4105838;28;20025;-73
2023/10/03 00:41:41;;;;;;;;;;;;;;;17.67;77.39;101080.91;4105580;28;19932;-73
2023/10/03 00:43:52;;;;;;;;;;;;;;;17.67;77.34;101070.81;4104009;28;20528;-73
2023/10/03 00:45:54;;;;;;;;;;;;;;;17.65;77.32;101076.47;4119798;28;20016;-72
2023/10/03 00:47:58;;;;;;;;;;;;;;;17.68;77.53;101061.56;4106269;28;20017;-73
2023/10/03 00:50:00;;;;;;;;;;;;;;;17.66;77.19;101058.19;4105833;28;20025;-72
2023/10/03 00:52:05;;;;;;;;;;;;;;;17.65;77.13;101051.91;4105496;28;20027;-72
2023/10/03 00:54:09;;;;;;;;;;;;;;;17.61;77.28;101047.09;4106276;28;20017;-72
2023/10/03 00:56:12;;;;;;;;;;;;;;;17.65;77.32;101051.06;4106419;28;20054;-73
2023/10/03 00:58:24;;;;;;;;;;;;;;;17.63;77.42;101051.28;4106442;28;20024;-73
2023/10/03 01:00:26;;;;;;;;;;;;;;;17.68;77.30;101036.13;4104950;28;20017;-73
2023/10/03 01:02:28;;;;;;;;;;;;;;;17.66;77.37;101039.06;4105809;28;19926;-73
2023/10/03 01:04:31;;;;;;;;;;;;;;;17.67;77.32;101034.47;4106579;28;20029;-73
2023/10/03 01:06:33;;;;;;;;;;;;;;;17.69;77.25;101033.16;4105872;28;20029;-72
2023/10/03 01:08:36;;;;;;;;;;;;;;;17.62;77.36;101027.75;4105646;28;20021;-73
2023/10/03 01:10:40;;;;;;;;;;;;;;;17.63;77.15;101021.25;4104055;28;20032;-72
2023/10/03 01:12:44;;;;;;;;;;;;;;;17.63;77.22;101018.50;4105450;28;20029;-73
2023/10/03 01:14:46;;;;;;;;;;;;;;;17.60;76.95;101026.28;4088945;28;20025;-72
2023/10/03 01:16:49;;;;;;;;;;;;;;;17.62;77.15;101019.56;4105673;28;20029;-73
2023/10/03 01:18:53;;;;;;;;;;;;;;;17.67;77.27;101018.06;4106274;28;20017;-72
2023/10/03 01:21:00;;;;;;;;;;;;;;;17.68;77.14;101017.00;4105287;28;20012;-72
2023/10/03 01:23:09;;;;;;;;;;;;;;;17.64;76.97;101011.16;4105572;28;20458;-72
2023/10/03 01:25:12;;;;;;;;;;;;;;;17.61;77.27;101012.41;4105249;28;20048;-72
2023/10/03 01:27:15;;;;;;;;;;;;;;;17.61;76.83;101009.69;4105058;28;20029;-72
2023/10/03 01:29:17;;;;;;;;;;;;;;;17.63;77.07;101006.72;4105235;28;20025;-73
2023/10/03 01:31:19;;;;;;;;;;;;;;;17.58;77.16;101006.56;4104124;28;20028;-73
2023/10/03 01:33:26;;;;;;;;;;;;;;;17.51;76.93;100997.53;4106206;28;20877;-72
2023/10/03 01:35:28;;;;;;;;;;;;;;;17.52;76.74;100996.50;4104798;28;20431;-72
2023/10/03 01:37:30;;;;;;;;;;;;;;;17.51;76.64;100992.94;4105694;28;20061;-72
2023/10/03 01:39:33;;;;;;;;;;;;;;;17.53;76.40;100988.09;4088601;28;20457;-72
2023/10/03 01:41:35;;;;;;;;;;;;;;;17.55;76.34;100991.44;4105717;28;20030;-72
2023/10/03 01:43:38;;;;;;;;;;;;;;;17.53;76.36;100990.00;4105008;28;19969;-72
2023/10/03 01:45:40;;;;;;;;;;;;;;;17.54;76.54;100986.19;4105422;28;20024;-72
2023/10/03 01:47:45;;;;;;;;;;;;;;;17.52;76.19;100989.13;4105300;28;20022;-72
2023/10/03 01:49:48;;;;;;;;;;;;;;;17.56;75.83;100984.91;4105442;28;20021;-72
2023/10/03 01:51:50;;;;;;;;;;;;;;;17.53;75.73;100990.81;4088452;28;20380;-72
2023/10/03 01:53:52;;;;;;;;;;;;;;;17.55;75.50;100980.50;4105420;28;20025;-72
2023/10/03 01:55:56;;;;;;;;;;;;;;;17.52;75.64;100972.75;4104184;28;20033;-73
2023/10/03 01:57:58;;;;;;;;;;;;;;;17.52;75.29;100983.66;4104274;28;20480;-72
2023/10/03 01:59:59;;;;;;;;;;;;;;;17.50;75.89;100976.78;4104214;28;20020;-72
2023/10/03 02:02:03;;;;;;;;;;;;;;;17.42;75.96;100965.03;4104807;28;20014;-72
2023/10/03 02:04:06;;;;;;;;;;;;;;;17.43;75.78;100968.63;4104522;28;19934;-72
2023/10/03 02:06:08;;;;;;;;;;;;;;;17.44;75.45;100964.81;4087957;28;20013;-73
2023/10/03 02:08:15;;;;;;;;;;;;;;;17.41;75.55;100965.25;4103926;28;20029;-73
2023/10/03 02:10:17;;;;;;;;;;;;;;;17.41;75.19;100966.09;4104187;28;20029;-72
2023/10/03 02:12:21;;;;;;;;;;;;;;;17.46;74.38;100968.16;4104903;28;20353;-72
2023/10/03 02:14:23;;;;;;;;;;;;;;;17.45;74.54;100970.06;4102364;28;20025;-73
2023/10/03 02:16:25;;;;;;;;;;;;;;;17.48;74.11;100961.44;4104873;28;20345;-73
2023/10/03 02:18:27;;;;;;;;;;;;;;;17.41;74.31;100954.31;4103945;28;20064;-73
2023/10/03 02:20:30;;;;;;;;;;;;;;;17.36;75.00;100951.41;4104768;28;20013;-73
2023/10/03 02:22:32;;;;;;;;;;;;;;;17.28;75.03;100939.66;4104552;28;20021;-73
2023/10/03 02:24:36;;;;;;;;;;;;;;;17.27;74.98;100937.16;4104990;28;20020;-72
2023/10/03 02:26:39;;;;;;;;;;;;;;;17.28;74.88;100934.22;4105085;28;19969;-72
2023/10/03 02:28:42;;;;;;;;;;;;;;;17.24;75.04;100940.31;4104944;28;20367;-72
2023/10/03 02:30:44;;;;;;;;;;;;;;;17.22;75.14;100936.97;4104126;28;20033;-72
2023/10/03 02:32:46;;;;;;;;;;;;;;;17.15;75.41;100927.97;4104744;28;20024;-72
2023/10/03 02:34:50;;;;;;;;;;;;;;;17.07;75.55;100926.34;4105600;28;20028;-72
2023/10/03 02:36:55;;;;;;;;;;;;;;;17.01;76.03;100917.13;4104600;28;20009;-72
2023/10/03 02:38:57;;;;;;;;;;;;;;;16.93;75.90;100912.72;4088246;28;20026;-72
2023/10/03 02:41:01;;;;;;;;;;;;;;;16.91;76.27;100906.66;4088944;28;20465;-72
2023/10/03 02:43:05;;;;;;;;;;;;;;;16.94;76.40;100908.09;4103501;28;20028;-72
2023/10/03 02:45:14;;;;;;;;;;;;;;;16.97;76.00;100901.41;4104107;28;19926;-72
2023/10/03 02:47:16;;;;;;;;;;;;;;;16.99;75.95;100889.22;4118956;28;20020;-72
2023/10/03 02:49:20;;;;;;;;;;;;;;;16.99;75.56;100883.75;4101348;28;20038;-72
2023/10/03 02:51:24;;;;;;;;;;;;;;;16.96;75.72;100878.75;4106469;28;20017;-73
2023/10/03 02:53:26;;;;;;;;;;;;;;;16.85;76.10;100882.09;4121400;28;20025;-72
2023/10/03 02:55:28;;;;;;;;;;;;;;;16.83;76.41;100876.84;4106864;28;20499;-73
2023/10/03 02:57:30;;;;;;;;;;;;;;;16.87;76.12;100866.41;4107174;28;19969;-72
2023/10/03 02:59:32;;;;;;;;;;;;;;;16.90;75.99;100869.53;4107156;28;20359;-72
2023/10/03 03:01:37;;;;;;;;;;;;;;;16.87;75.86;100863.66;4106939;28;20033;-72
2023/10/03 03:03:40;;;;;;;;;;;;;;;16.85;75.80;100857.53;4107513;28;20394;-72
2023/10/03 03:05:43;;;;;;;;;;;;;;;16.85;75.83;100852.06;4121672;28;19929;-72
2023/10/03 03:07:48;;;;;;;;;;;;;;;16.82;75.90;100847.91;4106993;28;20037;-72
2023/10/03 03:09:50;;;;;;;;;;;;;;;16.78;75.87;100843.09;4121783;28;20005;-72
2023/10/03 03:11:55;;;;;;;;;;;;;;;16.76;76.09;100846.03;4107020;28;20361;-72
2023/10/03 03:13:57;;;;;;;;;;;;;;;16.74;76.00;100842.72;4090946;28;20010;-72
2023/10/03 03:16:01;;;;;;;;;;;;;;;16.73;76.12;100839.13;4107444;28;20341;-72
2023/10/03 03:18:03;;;;;;;;;;;;;;;16.76;75.80;100840.59;4107674;28;20461;-72
2023/10/03 03:20:19;;;;;;;;;;;;;;;16.74;75.78;100839.97;4107054;28;20062;-72
2023/10/03 03:22:23;;;;;;;;;;;;;;;16.71;76.07;100829.50;4106959;28;20527;-72
2023/10/03 03:24:34;;;;;;;;;;;;;;;16.67;76.15;100830.97;4107466;28;20046;-72
2023/10/03 03:26:36;;;;;;;;;;;;;;;16.66;76.09;100829.28;4108637;28;20587;-72
2023/10/03 03:28:38;;;;;;;;;;;;;;;16.63;76.06;100819.66;4090716;28;20018;-72
2023/10/03 03:30:45;;;;;;;;;;;;;;;16.63;76.30;100821.53;4106763;28;20026;-73
2023/10/03 03:32:48;;;;;;;;;;;;;;;16.65;76.19;100812.09;4107422;28;20024;-72
2023/10/03 03:34:52;;;;;;;;;;;;;;;16.66;75.83;100807.47;4107864;28;20024;-72
2023/10/03 03:36:55;;;;;;;;;;;;;;;16.68;75.90;100791.75;4107236;28;20009;-72
2023/10/03 03:38:58;;;;;;;;;;;;;;;16.68;76.10;100800.75;4105064;28;20638;-72
2023/10/03 03:41:01;;;;;;;;;;;;;;;16.61;75.89;100797.22;4105950;28;20025;-72
2023/10/03 03:43:04;;;;;;;;;;;;;;;16.56;76.00;100792.41;4106692;28;20013;-72
2023/10/03 03:45:06;;;;;;;;;;;;;;;16.53;76.21;100784.66;4107282;28;20046;-72
2023/10/03 03:47:10;;;;;;;;;;;;;;;16.56;76.29;100783.41;4106223;28;20029;-72
2023/10/03 03:49:13;;;;;;;;;;;;;;;16.58;76.15;100781.28;4107197;28;20017;-72
2023/10/03 03:51:17;;;;;;;;;;;;;;;16.54;76.20;100778.16;4106909;28;20013;-72
2023/10/03 03:53:19;;;;;;;;;;;;;;;16.58;76.13;100773.09;4107453;28;20013;-72
2023/10/03 03:55:22;;;;;;;;;;;;;;;16.60;75.88;100761.97;4103418;28;20025;-72
2023/10/03 03:57:24;;;;;;;;;;;;;;;16.62;76.04;100762.63;4106864;28;20022;-72
2023/10/03 03:59:27;;;;;;;;;;;;;;;16.60;75.75;100757.38;4106502;28;20413;-72
2023/10/03 04:01:29;;;;;;;;;;;;;;;16.57;75.91;100752.38;4105486;28;20021;-73
2023/10/03 04:03:34;;;;;;;;;;;;;;;16.60;75.64;100751.94;4107487;28;20036;-72
2023/10/03 04:05:36;;;;;;;;;;;;;;;16.60;75.63;100751.94;4105270;28;20029;-72
2023/10/03 04:07:39;;;;;;;;;;;;;;;16.57;75.71;100761.38;4106264;28;20025;-72
2023/10/03 04:09:41;;;;;;;;;;;;;;;16.62;75.49;100752.53;4106124;28;20356;-72
2023/10/03 04:11:43;;;;;;;;;;;;;;;16.62;75.36;100754.44;4105912;28;20618;-72
2023/10/03 04:13:53;;;;;;;;;;;;;;;16.59;75.46;100750.25;4104000;28;20017;-72
2023/10/03 04:15:58;;;;;;;;;;;;;;;16.62;75.25;100754.44;4106485;28;20017;-72
2023/10/03 04:18:00;;;;;;;;;;;;;;;16.62;75.14;100751.72;4106341;28;20024;-72
2023/10/03 04:20:05;;;;;;;;;;;;;;;16.61;75.42;100748.13;4106288;28;20024;-72
2023/10/03 04:22:07;;;;;;;;;;;;;;;16.67;75.34;100743.72;4106096;28;20021;-71
2023/10/03 04:24:12;;;;;;;;;;;;;;;16.68;75.09;100748.94;4106938;28;20029;-72
2023/10/03 04:26:14;;;;;;;;;;;;;;;16.68;75.22;100745.41;4106498;28;19930;-73
2023/10/03 04:28:17;;;;;;;;;;;;;;;16.70;74.79;100749.56;4106368;28;19926;-72
2023/10/03 04:30:21;;;;;;;;;;;;;;;16.68;74.87;100745.41;4105165;28;20010;-72
2023/10/03 04:32:23;;;;;;;;;;;;;;;16.65;75.11;100743.09;4106955;28;20057;-72
2023/10/03 04:34:24;;;;;;;;;;;;;;;16.63;75.23;100740.59;4106795;28;19927;-72
2023/10/03 04:36:26;;;;;;;;;;;;;;;16.60;75.14;100740.16;4106234;28;20021;-72
2023/10/03 04:38:28;;;;;;;;;;;;;;;16.60;75.04;100731.97;4105389;28;20021;-72
2023/10/03 04:40:33;;;;;;;;;;;;;;;16.60;75.38;100731.97;4106025;28;20029;-72
2023/10/03 04:42:38;;;;;;;;;;;;;;;16.55;75.33;100728.03;4104700;28;19993;-72
2023/10/03 04:44:40;;;;;;;;;;;;;;;16.56;75.46;100718.78;4106174;28;20013;-72
2023/10/03 04:46:42;;;;;;;;;;;;;;;16.55;75.39;100717.13;4103246;28;20020;-72
2023/10/03 04:48:44;;;;;;;;;;;;;;;16.57;75.43;100712.28;4106119;28;20371;-72
2023/10/03 04:50:46;;;;;;;;;;;;;;;16.61;74.78;100714.59;4104801;28;20009;-72
2023/10/03 04:52:48;;;;;;;;;;;;;;;16.62;74.61;100713.53;4090079;28;20033;-72
2023/10/03 04:54:50;;;;;;;;;;;;;;;16.59;74.74;100712.06;4106103;28;20104;-72
2023/10/03 04:56:54;;;;;;;;;;;;;;;16.62;74.31;100713.53;4105433;28;20009;-72
2023/10/03 04:58:56;;;;;;;;;;;;;;;16.58;74.45;100708.53;4104356;28;20016;-72
2023/10/03 05:00:58;;;;;;;;;;;;;;;16.56;74.61;100705.16;4104884;28;20013;-72
2023/10/03 05:03:03;;;;;;;;;;;;;;;16.56;74.46;100696.97;4089492;28;20152;-73
2023/10/03 05:05:06;;;;;;;;;;;;;;;16.59;74.39;100693.00;4106485;28;20603;-72
2023/10/03 05:07:10;;;;;;;;;;;;;;;16.58;74.19;100688.56;4104360;28;20892;-71
2023/10/03 05:09:12;;;;;;;;;;;;;;;16.58;74.11;100694.88;4105862;28;19930;-71
2023/10/03 05:11:14;;;;;;;;;;;;;;;16.52;74.39;100687.59;4104787;28;20021;-71
2023/10/03 05:13:19;;;;;;;;;;;;;;;16.54;74.27;100676.47;4105033;28;20026;-71
2023/10/03 05:15:21;;;;;;;;;;;;;;;16.50;74.55;100673.31;4088967;28;20022;-72
2023/10/03 05:17:25;;;;;;;;;;;;;;;16.48;74.61;100664.53;4106547;28;20021;-71
2023/10/03 05:19:27;;;;;;;;;;;;;;;16.43;74.89;100656.16;4105984;28;20017;-72
2023/10/03 05:21:31;;;;;;;;;;;;;;;16.48;74.80;100664.53;4105121;28;20053;-72
2023/10/03 05:23:33;;;;;;;;;;;;;;;16.48;74.67;100658.25;4105242;28;20025;-71
2023/10/03 05:25:37;;;;;;;;;;;;;;;16.48;75.00;100659.06;4105934;28;20037;-71
2023/10/03 05:27:39;;;;;;;;;;;;;;;16.53;74.62;100661.97;4106303;28;20461;-72
2023/10/03 05:29:43;;;;;;;;;;;;;;;16.56;74.34;100653.34;4105171;28;19933;-72
2023/10/03 05:31:44;;;;;;;;;;;;;;;16.57;74.30;100641.41;4105536;28;20030;-71
2023/10/03 05:33:46;;;;;;;;;;;;;;;16.57;74.25;100635.13;4105684;28;20021;-72
2023/10/03 05:35:47;;;;;;;;;;;;;;;16.59;74.39;100649.38;4105546;28;20025;-71
2023/10/03 05:37:50;;;;;;;;;;;;;;;16.63;74.20;100641.56;4103191;28;19997;-72
2023/10/03 05:39:53;;;;;;;;;;;;;;;16.62;74.20;100638.03;4088814;28;19976;-72
2023/10/03 05:42:00;;;;;;;;;;;;;;;16.64;74.40;100626.91;4103203;28;20014;-71
2023/10/03 05:44:03;;;;;;;;;;;;;;;16.66;73.97;100619.31;4105904;28;19977;-72
2023/10/03 05:46:07;;;;;;;;;;;;;;;16.67;74.05;100610.91;4105808;28;20034;-71
2023/10/03 05:48:10;;;;;;;;;;;;;;;16.67;74.13;100612.81;4090151;28;19965;-72
2023/10/03 05:50:12;;;;;;;;;;;;;;;16.68;74.40;100609.06;4106100;28;20389;-72
2023/10/03 05:52:16;;;;;;;;;;;;;;;16.73;74.45;100614.66;4102117;28;19930;-72
2023/10/03 05:54:17;;;;;;;;;;;;;;;16.76;74.31;100611.50;4104537;28;20017;-72
2023/10/03 05:56:19;;;;;;;;;;;;;;;16.81;74.04;100610.84;4103771;28;20009;-73
2023/10/03 05:58:21;;;;;;;;;;;;;;;16.82;74.09;100610.63;4104937;28;20016;-71
2023/10/03 06:00:24;;;;;;;;;;;;;;;16.85;73.67;100610.19;4104391;28;20049;-71
2023/10/03 06:02:27;;;;;;;;;;;;;;;16.88;73.53;100598.00;4105293;28;20017;-72
2023/10/03 06:04:33;;;;;;;;;;;;;;;16.89;73.70;100600.50;4100801;28;20037;-72
2023/10/03 06:06:34;;;;;;;;;;;;;;;16.92;73.56;100610.16;4104653;28;20372;-72
2023/10/03 06:08:36;;;;;;;;;;;;;;;16.95;73.36;100614.34;4105905;28;20017;-71
2023/10/03 06:10:38;;;;;;;;;;;;;;;16.95;73.11;100615.16;4104287;28;19931;-72
2023/10/03 06:12:40;;;;;;;;;;;;;;;16.97;72.89;100607.56;4104246;28;20029;-72
2023/10/03 06:14:42;;;;;;;;;;;;;;;16.99;72.96;100608.22;4105289;28;20029;-71
2023/10/03 06:16:45;;;;;;;;;;;;;;;17.01;73.00;100613.44;4104967;28;20020;-71
2023/10/03 06:18:47;;;;;;;;;;;;;;;17.03;72.95;100592.22;4105203;28;20013;-71
2023/10/03 06:20:50;;;;;;;;;;;;;;;17.06;72.87;100583.59;4104468;28;20017;-71
2023/10/03 06:22:51;;;;;;;;;;;;;;;17.07;72.72;100591.56;4105232;28;20448;-71
2023/10/03 06:24:57;;;;;;;;;;;;;;;17.09;72.77;100583.97;4105798;28;20437;-71
2023/10/03 06:27:00;;;;;;;;;;;;;;;17.12;72.54;100574.50;4106971;28;20028;-71
2023/10/03 06:29:02;;;;;;;;;;;;;;;17.15;72.16;100562.28;4108798;28;20017;-72
2023/10/03 06:31:04;;;;;;;;;;;;;;;17.16;71.97;100570.25;4107995;28;20431;-71
2023/10/03 06:33:07;;;;;;;;;;;;;;;17.18;72.02;100564.56;4107580;28;20118;-72
2023/10/03 06:35:12;;;;;;;;;;;;;;;17.19;72.05;100561.63;4109137;28;19933;-72
2023/10/03 06:37:13;;;;;;;;;;;;;;;17.23;71.85;100564.75;4107455;28;20009;-72
2023/10/03 06:39:15;;;;;;;;;;;;;;;17.26;71.91;100570.59;4107034;28;20282;-73
2023/10/03 06:41:21;;;;;;;;;;;;;;;17.27;71.96;100575.00;4107780;28;20013;-74
2023/10/03 06:43:23;;;;;;;;;;;;;;;17.28;71.76;100565.72;4108306;28;20013;-73
2023/10/03 06:45:25;;;;;;;;;;;;;;;17.31;71.68;100569.91;4093103;28;19966;-75
2023/10/03 06:47:27;;;;;;;;;;;;;;;17.34;71.61;100574.91;4108652;28;20034;-73
2023/10/03 06:49:29;;;;;;;;;;;;;;;17.36;71.70;100585.63;4107075;28;20036;-73
2023/10/03 06:51:33;;;;;;;;;;;;;;;17.39;71.64;100588.72;4104894;28;19926;-73
2023/10/03 06:53:35;;;;;;;;;;;;;;;17.40;71.50;100586.84;4107941;28;20021;-74
2023/10/03 06:55:37;;;;;;;;;;;;;;;17.40;71.67;100579.47;4108008;28;20110;-73
2023/10/03 06:57:40;;;;;;;;;;;;;;;17.43;71.50;100579.03;4108278;28;20495;-73
2023/10/03 06:59:42;;;;;;;;;;;;;;;17.45;71.47;100574.16;4107796;28;20473;-74
2023/10/03 07:01:44;;;;;;;;;;;;;;;17.47;71.60;100566.56;4107836;28;20596;-73
2023/10/03 07:03:47;;;;;;;;;;;;;;;17.50;71.81;100561.75;4108876;28;20012;-74
2023/10/03 07:05:48;;;;;;;;;;;;;;;17.52;71.67;100563.16;4108206;28;19997;-74
2023/10/03 07:07:53;;;;;;;;;;;;;;;17.54;72.05;100566.50;4107623;28;20337;-74
2023/10/03 07:09:55;;;;;;;;;;;;;;;17.57;71.95;100560.59;4105428;28;20033;-76
2023/10/03 07:11:58;;;;;;;;;;;;;;;17.61;71.86;100550.03;4107373;28;20688;-75
2023/10/03 07:13:59;;;;;;;;;;;;;;;17.62;71.77;100538.91;4107941;28;20477;-74
2023/10/03 07:16:01;;;;;;;;;;;;;;;17.66;71.69;100531.06;4108241;28;20371;-74
2023/10/03 07:18:03;;;;;;;;;;;;;;;17.69;71.82;100516.13;4106891;28;20005;-73
2023/10/03 07:20:09;;;;;;;;;;;;;;;17.71;71.79;100520.31;4105376;28;20313;-71
2023/10/03 07:22:12;;;;;;;;;;;;;;;17.73;71.91;100518.19;4090845;28;19969;-74
2023/10/03 07:24:17;;;;;;;;;;;;;;;17.76;71.84;100536.00;4109201;28;20028;-72
2023/10/03 07:26:20;;;;;;;;;;;;;;;17.79;71.81;100533.66;4108242;28;20485;-72
2023/10/03 07:28:22;;;;;;;;;;;;;;;17.83;71.87;100532.09;4106717;28;20687;-71
2023/10/03 07:30:29;;;;;;;;;;;;;;;17.84;71.97;100536.50;4106358;28;20017;-72
2023/10/03 07:32:36;;;;;;;;;;;;;;;17.90;71.70;100533.94;4105979;28;20423;-70
2023/10/03 07:34:42;;;;;;;;;;;;;;;17.93;71.78;100522.56;4108060;28;20013;-73
2023/10/03 07:36:45;;;;;;;;;;;;;;;17.96;71.81;100542.06;4106442;28;20017;-72
2023/10/03 07:38:47;;;;;;;;;;;;;;;17.98;71.83;100539.94;4107626;28;20353;-73
2023/10/03 07:40:51;;;;;;;;;;;;;;;18.01;71.89;100517.63;4107214;28;20477;-72
2023/10/03 07:42:54;;;;;;;;;;;;;;;18.05;71.80;100528.91;4106910;28;20440;-72
2023/10/03 07:44:58;;;;;;;;;;;;;;;18.09;71.98;100527.38;4107902;28;20353;-72
2023/10/03 07:47:02;;;;;;;;;;;;;;;18.12;72.00;100540.59;4107883;28;20013;-72
2023/10/03 07:49:05;;;;;;;;;;;;;;;18.17;71.80;100539.91;4108250;28;20029;-72
2023/10/03 07:51:06;;;;;;;;;;;;;;;18.21;71.82;100532.06;4105755;28;20025;-72
2023/10/03 07:53:11;;;;;;;;;;;;;;;18.25;71.54;100530.53;4106521;28;19927;-72
2023/10/03 07:55:13;;;;;;;;;;;;;;;18.29;71.44;100524.38;4106878;28;20461;-71
2023/10/03 07:57:16;;;;;;;;;;;;;;;18.32;71.58;100529.38;4106475;28;20033;-73
2023/10/03 07:59:18;;;;;;;;;;;;;;;18.36;71.40;100527.00;4106776;28;19962;-74
2023/10/03 08:01:21;;;;;;;;;;;;;;;18.40;71.46;100530.94;4089655;28;20024;-74
2023/10/03 08:03:28;;;;;;;;;;;;;;;18.44;71.07;100528.56;4106409;28;20002;-74
2023/10/03 08:05:30;;;;;;;;;;;;;;;18.50;70.81;100527.63;4107400;28;20028;-73
2023/10/03 08:07:32;;;;;;;;;;;;;;;18.53;70.62;100525.25;4106480;28;20029;-73
2023/10/03 08:09:34;;;;;;;;;;;;;;;18.59;70.30;100507.06;4106769;28;20068;-73
2023/10/03 08:11:36;;;;;;;;;;;;;;;18.64;70.52;100512.66;4106428;28;20021;-73
2023/10/03 08:13:38;;;;;;;;;;;;;;;18.71;69.83;100512.53;4106223;28;20371;-73
2023/10/03 08:15:41;;;;;;;;;;;;;;;18.76;69.85;100528.25;4107712;28;20375;-73
2023/10/03 08:17:44;;;;;;;;;;;;;;;18.80;70.08;100521.25;4107351;28;20033;-73
2023/10/03 08:19:46;;;;;;;;;;;;;;;18.86;70.08;100518.41;4106190;28;20016;-73
2023/10/03 08:21:48;;;;;;;;;;;;;;;18.94;70.40;100513.66;4105502;28;20061;-74
2023/10/03 08:23:51;;;;;;;;;;;;;;;18.99;70.49;100506.38;4105931;28;20033;-73
2023/10/03 08:26:01;;;;;;;;;;;;;;;19.04;70.13;100508.41;4106990;28;20524;-74
2023/10/03 08:28:09;;;;;;;;;;;;;;;19.15;69.27;100507.56;4107017;28;20022;-74
2023/10/03 08:30:25;;;;;;;;;;;;;;;19.22;69.44;100497.31;4105397;28;20078;-73
2023/10/03 08:32:27;;;;;;;;;;;;;;;19.30;68.86;100496.13;4105835;28;20013;-74
2023/10/03 08:34:30;;;;;;;;;;;;;;;19.37;68.89;100496.84;4107100;28;20029;-73
2023/10/03 08:36:37;;;;;;;;;;;;;;;19.45;68.69;100517.50;4106534;28;20045;-74
2023/10/03 08:38:43;;;;;;;;;;;;;;;19.56;67.47;100502.97;4089645;28;20022;-74
2023/10/03 08:40:49;;;;;;;;;;;;;;;19.64;67.43;100490.81;4106315;28;20021;-74
2023/10/03 08:42:52;;;;;;;;;;;;;;;19.69;67.37;100487.34;4089981;28;20025;-74
2023/10/03 08:44:57;;;;;;;;;;;;;;;19.74;67.23;100484.69;4106953;28;20422;-73
2023/10/03 08:47:00;;;;;;;;;;;;;;;19.82;66.39;100498.03;4090416;28;20006;-73
2023/10/03 08:49:07;;;;;;;;;;;;;;;19.88;66.03;100471.56;4105110;28;21388;-73
2023/10/03 08:51:13;;;;;;;;;;;;;;;19.90;66.39;100472.13;4105292;28;20033;-73
2023/10/03 08:53:26;;;;;;;;;;;;;;;19.95;65.39;100464.84;4106331;28;20025;-73
2023/10/03 08:55:28;;;;;;;;;;;;;;;19.97;65.57;100465.44;4091482;28;20917;-73
2023/10/03 08:57:31;;;;;;;;;;;;;;;20.00;65.85;100472.34;4106172;28;19961;-72
2023/10/03 08:59:33;;;;;;;;;;;;;;;20.03;65.99;100460.03;4107246;28;19926;-72
2023/10/03 09:01:38;;;;;;;;;;;;;;;20.04;66.24;100448.00;4106256;28;20363;-75
2023/10/03 09:03:47;;;;;;;;;;;;;;;20.05;65.84;100455.16;4107162;28;20368;-72
2023/10/03 09:05:48;;;;;;;;;;;;;;;20.08;65.54;100440.94;4105161;28;20846;-72
2023/10/03 09:07:50;;;;;;;;;;;;;;;20.12;65.36;100448.41;4089626;28;19930;-72
2023/10/03 09:09:53;;;;;;;;;;;;;;;20.12;65.41;100458.56;4105591;28;20460;-72
2023/10/03 09:11:58;;;;;;;;;;;;;;;20.15;64.72;100449.84;4088471;28;19927;-72
2023/10/03 09:14:01;;;;;;;;;;;;;;;20.19;64.77;100461.13;4105404;28;20360;-71
2023/10/03 09:16:08;;;;;;;;;;;;;;;20.19;64.78;100450.16;4101229;28;19966;-72
2023/10/03 09:18:15;;;;;;;;;;;;;;;20.20;64.87;100449.91;4104068;28;19926;-73
2023/10/03 09:20:31;;;;;;;;;;;;;;;20.21;64.79;100439.78;4102094;28;20022;-71
2023/10/03 09:22:33;;;;;;;;;;;;;;;20.22;64.57;100434.06;4104490;28;20461;-73
2023/10/03 09:24:43;;;;;;;;;;;;;;;20.22;64.74;100438.69;4103233;28;20029;-74
2023/10/03 09:26:51;;;;;;;;;;;;;;;20.26;64.51;100445.34;4103619;28;20017;-74
2023/10/03 09:28:53;;;;;;;;;;;;;;;20.26;64.67;100448.91;4101862;28;20508;-74
2023/10/03 09:30:55;;;;;;;;;;;;;;;20.28;64.73;100463.22;4102939;28;20020;-74
2023/10/03 09:32:57;;;;;;;;;;;;;;;20.31;64.01;100459.16;4100968;28;20025;-73
2023/10/03 09:35:09;;;;;;;;;;;;;;;20.32;63.73;100455.34;4103057;28;20029;-74
2023/10/03 09:37:13;;;;;;;;;;;;;;;20.32;64.36;100449.84;4102022;28;19934;-74
2023/10/03 09:39:21;;;;;;;;;;;;;;;20.33;64.32;100471.53;4102285;28;19944;-74
2023/10/03 09:41:23;;;;;;;;;;;;;;;20.31;64.72;100445.44;4103609;28;20028;-74
2023/10/03 09:43:27;;;;;;;;;;;;;;;20.32;64.72;100436.97;4102637;28;20457;-74
2023/10/03 09:45:29;;;;;;;;;;;;;;;20.37;64.89;100438.94;4101522;28;20029;-74
2023/10/03 09:47:34;;;;;;;;;;;;;;;20.39;64.75;100431.31;4087062;28;20002;-73
2023/10/03 09:49:39;;;;;;;;;;;;;;;20.40;64.92;100429.41;4102288;28;20065;-73
2023/10/03 09:51:51;;;;;;;;;;;;;;;20.43;65.10;100434.38;4103312;28;20029;-73
2023/10/03 09:53:56;;;;;;;;;;;;;;;20.46;65.09;100428.41;4102839;28;20453;-74
2023/10/03 09:56:00;;;;;;;;;;;;;;;20.50;64.75;100426.81;4103301;28;20021;-74
2023/10/03 09:58:04;;;;;;;;;;;;;;;20.53;64.90;100426.31;4099463;28;19937;-73
2023/10/03 10:00:23;;;;;;;;;;;;;;;20.53;64.82;100418.06;4101413;28;20030;-76
2023/10/03 10:02:35;;;;;;;;;;;;;;;20.57;64.72;100416.50;4100254;28;20013;-74
2023/10/03 10:04:37;;;;;;;;;;;;;;;20.57;64.66;100415.69;4104441;28;20021;-71
2023/10/03 10:06:47;;;;;;;;;;;;;;;20.59;65.03;100425.31;4104661;28;20013;-74
2023/10/03 10:08:54;;;;;;;;;;;;;;;20.61;64.90;100409.44;4103394;28;20375;-73
2023/10/03 10:11:07;;;;;;;;;;;;;;;20.64;65.04;100408.97;4104189;28;20037;-74
2023/10/03 10:13:13;;;;;;;;;;;;;;;20.68;65.30;100412.84;4104126;28;20380;-71
2023/10/03 10:15:17;;;;;;;;;;;;;;;20.70;65.10;100435.41;4103440;28;20126;-74
2023/10/03 10:17:21;;;;;;;;;;;;;;;20.74;64.80;100437.66;4103497;28;20455;-74
2023/10/03 10:19:24;;;;;;;;;;;;;;;20.74;64.75;100438.47;4103007;28;20056;-74
2023/10/03 10:21:30;;;;;;;;;;;;;;;20.77;64.57;100440.69;4102321;28;20031;-74
2023/10/03 10:23:35;;;;;;;;;;;;;;;20.75;64.99;100423.63;4103509;28;20017;-74
2023/10/03 10:25:41;;;;;;;;;;;;;;;20.80;64.88;100442.94;4102754;28;20315;-74
2023/10/03 10:27:45;;;;;;;;;;;;;;;20.85;64.58;100447.69;4103425;28;20030;-74
2023/10/03 10:29:57;;;;;;;;;;;;;;;20.85;64.66;100428.47;4103108;28;20020;-75
2023/10/03 10:31:59;;;;;;;;;;;;;;;20.86;64.57;100424.63;4103201;28;20013;-74
2023/10/03 10:34:20;;;;;;;;;;;;;;;20.88;64.34;100408.75;4103204;28;20459;-74